sensor_id;sensor_type;location;lat;lon;timestamp;P1;durP1;ratioP1;P2;durP2;ratioP2
78728;SDS011;68252;44.944;20.218;2023-10-09T00:00:59;5.65;;;2.92;;
78728;SDS011;68252;44.944;20.218;2023-10-09T00:03:46;5.72;;;2.33;;
78728;SDS011;68252;44.944;20.218;2023-10-09T00:06:22;5.55;;;2.17;;
78728;SDS011;68252;44.944;20.218;2023-10-09T00:09:17;7.10;;;2.90;;
78728;SDS011;68252;44.944;20.218;2023-10-09T00:11:49;6.05;;;2.53;;
78728;SDS011;68252;44.944;20.218;2023-10-09T00:14:22;8.43;;;2.63;;
78728;SDS011;68252;44.944;20.218;2023-10-09T00:16:48;6.75;;;2.13;;
78728;SDS011;68252;44.944;20.218;2023-10-09T00:19:21;9.77;;;1.60;;
78728;SDS011;68252;44.944;20.218;2023-10-09T00:21:55;7.40;;;1.80;;
78728;SDS011;68252;44.944;20.218;2023-10-09T00:24:23;5.07;;;1.73;;
78728;SDS011;68252;44.944;20.218;2023-10-09T00:26:54;4.25;;;1.70;;
78728;SDS011;68252;44.944;20.218;2023-10-09T00:29:39;7.63;;;1.80;;
78728;SDS011;68252;44.944;20.218;2023-10-09T00:32:11;7.70;;;1.92;;
78728;SDS011;68252;44.944;20.218;2023-10-09T00:34:41;4.40;;;1.75;;
78728;SDS011;68252;44.944;20.218;2023-10-09T00:37:11;7.07;;;1.70;;
78728;SDS011;68252;44.944;20.218;2023-10-09T00:39:51;4.47;;;1.92;;
78728;SDS011;68252;44.944;20.218;2023-10-09T00:42:23;6.03;;;2.03;;
78728;SDS011;68252;44.944;20.218;2023-10-09T00:45:01;5.13;;;1.80;;
78728;SDS011;68252;44.944;20.218;2023-10-09T00:47:32;7.38;;;1.50;;
78728;SDS011;68252;44.944;20.218;2023-10-09T00:49:59;8.05;;;2.17;;
78728;SDS011;68252;44.944;20.218;2023-10-09T00:52:33;5.07;;;1.77;;
78728;SDS011;68252;44.944;20.218;2023-10-09T00:55:10;5.70;;;1.40;;
78728;SDS011;68252;44.944;20.218;2023-10-09T00:57:43;5.45;;;1.63;;
78728;SDS011;68252;44.944;20.218;2023-10-09T01:00:25;10.68;;;1.75;;
78728;SDS011;68252;44.944;20.218;2023-10-09T01:03:12;4.80;;;1.52;;
78728;SDS011;68252;44.944;20.218;2023-10-09T01:08:38;5.93;;;1.85;;
78728;SDS011;68252;44.944;20.218;2023-10-09T01:11:05;3.58;;;1.30;;
78728;SDS011;68252;44.944;20.218;2023-10-09T01:13:34;3.65;;;1.10;;
78728;SDS011;68252;44.944;20.218;2023-10-09T01:16:21;16.77;;;1.48;;
78728;SDS011;68252;44.944;20.218;2023-10-09T01:18:52;4.47;;;1.30;;
78728;SDS011;68252;44.944;20.218;2023-10-09T01:21:18;5.05;;;2.08;;
78728;SDS011;68252;44.944;20.218;2023-10-09T01:23:51;4.10;;;1.20;;
78728;SDS011;68252;44.944;20.218;2023-10-09T01:26:27;4.30;;;1.30;;
78728;SDS011;68252;44.944;20.218;2023-10-09T01:28:58;6.10;;;1.25;;
78728;SDS011;68252;44.944;20.218;2023-10-09T01:31:25;3.80;;;1.50;;
78728;SDS011;68252;44.944;20.218;2023-10-09T01:33:52;4.65;;;1.73;;
78728;SDS011;68252;44.944;20.218;2023-10-09T01:36:25;2.75;;;1.50;;
78728;SDS011;68252;44.944;20.218;2023-10-09T01:39:04;7.78;;;1.60;;
78728;SDS011;68252;44.944;20.218;2023-10-09T01:41:35;6.57;;;1.70;;
78728;SDS011;68252;44.944;20.218;2023-10-09T01:44:11;3.35;;;1.77;;
78728;SDS011;68252;44.944;20.218;2023-10-09T01:46:38;5.75;;;1.70;;
78728;SDS011;68252;44.944;20.218;2023-10-09T01:49:04;5.25;;;1.52;;
78728;SDS011;68252;44.944;20.218;2023-10-09T01:51:41;4.38;;;1.70;;
78728;SDS011;68252;44.944;20.218;2023-10-09T01:54:07;4.38;;;1.70;;
78728;SDS011;68252;44.944;20.218;2023-10-09T01:56:34;7.00;;;1.60;;
78728;SDS011;68252;44.944;20.218;2023-10-09T01:59:04;4.72;;;1.67;;
78728;SDS011;68252;44.944;20.218;2023-10-09T02:01:34;4.43;;;1.95;;
78728;SDS011;68252;44.944;20.218;2023-10-09T02:04:05;7.10;;;1.75;;
78728;SDS011;68252;44.944;20.218;2023-10-09T02:06:38;8.23;;;2.38;;
78728;SDS011;68252;44.944;20.218;2023-10-09T02:09:05;5.10;;;1.80;;
78728;SDS011;68252;44.944;20.218;2023-10-09T02:11:32;6.47;;;1.60;;
78728;SDS011;68252;44.944;20.218;2023-10-09T02:14:02;3.38;;;1.83;;
78728;SDS011;68252;44.944;20.218;2023-10-09T02:16:30;3.55;;;1.85;;
78728;SDS011;68252;44.944;20.218;2023-10-09T02:19:07;7.45;;;1.27;;
78728;SDS011;68252;44.944;20.218;2023-10-09T02:21:55;2.70;;;1.57;;
78728;SDS011;68252;44.944;20.218;2023-10-09T02:24:26;7.70;;;1.77;;
78728;SDS011;68252;44.944;20.218;2023-10-09T02:27:12;5.10;;;1.70;;
78728;SDS011;68252;44.944;20.218;2023-10-09T02:29:45;4.97;;;1.73;;
78728;SDS011;68252;44.944;20.218;2023-10-09T02:32:12;4.28;;;1.52;;
78728;SDS011;68252;44.944;20.218;2023-10-09T02:34:50;5.07;;;1.80;;
78728;SDS011;68252;44.944;20.218;2023-10-09T02:37:19;3.60;;;1.75;;
78728;SDS011;68252;44.944;20.218;2023-10-09T02:39:50;4.97;;;1.95;;
78728;SDS011;68252;44.944;20.218;2023-10-09T02:42:17;5.60;;;2.20;;
78728;SDS011;68252;44.944;20.218;2023-10-09T02:44:52;6.78;;;2.35;;
78728;SDS011;68252;44.944;20.218;2023-10-09T02:47:20;6.07;;;1.80;;
78728;SDS011;68252;44.944;20.218;2023-10-09T02:49:50;8.65;;;2.00;;
78728;SDS011;68252;44.944;20.218;2023-10-09T02:52:16;9.77;;;2.35;;
78728;SDS011;68252;44.944;20.218;2023-10-09T02:54:51;8.60;;;2.17;;
78728;SDS011;68252;44.944;20.218;2023-10-09T02:57:25;10.20;;;2.28;;
78728;SDS011;68252;44.944;20.218;2023-10-09T02:59:53;5.07;;;2.15;;
78728;SDS011;68252;44.944;20.218;2023-10-09T03:02:19;4.50;;;2.38;;
78728;SDS011;68252;44.944;20.218;2023-10-09T03:04:48;5.78;;;2.25;;
78728;SDS011;68252;44.944;20.218;2023-10-09T03:07:14;7.85;;;2.85;;
78728;SDS011;68252;44.944;20.218;2023-10-09T03:09:40;7.78;;;3.80;;
78728;SDS011;68252;44.944;20.218;2023-10-09T03:12:06;5.97;;;2.47;;
78728;SDS011;68252;44.944;20.218;2023-10-09T03:14:37;8.68;;;2.30;;
78728;SDS011;68252;44.944;20.218;2023-10-09T03:17:03;5.05;;;2.33;;
78728;SDS011;68252;44.944;20.218;2023-10-09T03:19:32;6.35;;;2.38;;
78728;SDS011;68252;44.944;20.218;2023-10-09T03:22:02;7.68;;;2.60;;
78728;SDS011;68252;44.944;20.218;2023-10-09T03:24:29;3.50;;;2.20;;
78728;SDS011;68252;44.944;20.218;2023-10-09T03:26:57;10.95;;;2.83;;
78728;SDS011;68252;44.944;20.218;2023-10-09T03:29:24;7.43;;;2.85;;
78728;SDS011;68252;44.944;20.218;2023-10-09T03:31:52;13.85;;;3.00;;
78728;SDS011;68252;44.944;20.218;2023-10-09T03:34:20;6.25;;;2.47;;
78728;SDS011;68252;44.944;20.218;2023-10-09T03:36:47;9.38;;;2.58;;
78728;SDS011;68252;44.944;20.218;2023-10-09T03:39:13;7.57;;;2.70;;
78728;SDS011;68252;44.944;20.218;2023-10-09T03:41:58;9.02;;;2.72;;
78728;SDS011;68252;44.944;20.218;2023-10-09T03:44:25;6.82;;;3.22;;
78728;SDS011;68252;44.944;20.218;2023-10-09T03:46:54;5.70;;;2.72;;
78728;SDS011;68252;44.944;20.218;2023-10-09T03:49:21;6.22;;;2.72;;
78728;SDS011;68252;44.944;20.218;2023-10-09T03:51:51;8.05;;;2.55;;
78728;SDS011;68252;44.944;20.218;2023-10-09T03:54:17;10.25;;;2.90;;
78728;SDS011;68252;44.944;20.218;2023-10-09T03:56:46;7.80;;;3.40;;
78728;SDS011;68252;44.944;20.218;2023-10-09T03:59:18;10.07;;;3.03;;
78728;SDS011;68252;44.944;20.218;2023-10-09T04:01:47;5.53;;;2.83;;
78728;SDS011;68252;44.944;20.218;2023-10-09T04:04:16;8.13;;;2.73;;
78728;SDS011;68252;44.944;20.218;2023-10-09T04:06:42;10.50;;;3.05;;
78728;SDS011;68252;44.944;20.218;2023-10-09T04:09:11;6.80;;;2.42;;
78728;SDS011;68252;44.944;20.218;2023-10-09T04:11:43;6.55;;;3.10;;
78728;SDS011;68252;44.944;20.218;2023-10-09T04:14:14;9.98;;;3.78;;
78728;SDS011;68252;44.944;20.218;2023-10-09T04:16:51;7.20;;;3.10;;
78728;SDS011;68252;44.944;20.218;2023-10-09T04:19:17;6.15;;;2.40;;
78728;SDS011;68252;44.944;20.218;2023-10-09T04:21:50;5.25;;;2.65;;
78728;SDS011;68252;44.944;20.218;2023-10-09T04:24:20;6.38;;;2.78;;
78728;SDS011;68252;44.944;20.218;2023-10-09T04:26:47;7.25;;;2.47;;
78728;SDS011;68252;44.944;20.218;2023-10-09T04:29:13;11.10;;;3.70;;
78728;SDS011;68252;44.944;20.218;2023-10-09T04:31:54;10.90;;;3.60;;
78728;SDS011;68252;44.944;20.218;2023-10-09T04:34:24;14.93;;;3.47;;
78728;SDS011;68252;44.944;20.218;2023-10-09T04:36:53;9.63;;;3.05;;
78728;SDS011;68252;44.944;20.218;2023-10-09T04:39:23;11.45;;;3.45;;
78728;SDS011;68252;44.944;20.218;2023-10-09T04:41:55;10.80;;;2.65;;
78728;SDS011;68252;44.944;20.218;2023-10-09T04:44:45;9.40;;;5.25;;
78728;SDS011;68252;44.944;20.218;2023-10-09T04:47:30;10.05;;;3.35;;
78728;SDS011;68252;44.944;20.218;2023-10-09T04:50:02;8.85;;;3.50;;
78728;SDS011;68252;44.944;20.218;2023-10-09T04:52:51;8.73;;;3.00;;
78728;SDS011;68252;44.944;20.218;2023-10-09T04:55:17;10.65;;;3.10;;
78728;SDS011;68252;44.944;20.218;2023-10-09T04:57:45;9.57;;;3.80;;
78728;SDS011;68252;44.944;20.218;2023-10-09T05:03:07;19.65;;;6.85;;
78728;SDS011;68252;44.944;20.218;2023-10-09T05:05:37;43.15;;;15.32;;
78728;SDS011;68252;44.944;20.218;2023-10-09T05:08:10;19.30;;;5.00;;
78728;SDS011;68252;44.944;20.218;2023-10-09T05:11:17;18.58;;;6.65;;
78728;SDS011;68252;44.944;20.218;2023-10-09T05:13:55;29.13;;;9.63;;
78728;SDS011;68252;44.944;20.218;2023-10-09T05:16:36;19.30;;;7.43;;
78728;SDS011;68252;44.944;20.218;2023-10-09T05:19:09;12.82;;;5.90;;
78728;SDS011;68252;44.944;20.218;2023-10-09T05:21:54;94.53;;;50.10;;
78728;SDS011;68252;44.944;20.218;2023-10-09T05:26:51;54.38;;;30.42;;
78728;SDS011;68252;44.944;20.218;2023-10-09T05:29:24;68.70;;;34.88;;
78728;SDS011;68252;44.944;20.218;2023-10-09T05:31:53;25.80;;;13.65;;
78728;SDS011;68252;44.944;20.218;2023-10-09T05:34:30;12.35;;;4.93;;
78728;SDS011;68252;44.944;20.218;2023-10-09T05:37:04;10.48;;;4.10;;
78728;SDS011;68252;44.944;20.218;2023-10-09T05:39:46;10.45;;;4.00;;
78728;SDS011;68252;44.944;20.218;2023-10-09T05:42:27;10.18;;;4.47;;
78728;SDS011;68252;44.944;20.218;2023-10-09T05:45:07;14.82;;;4.78;;
78728;SDS011;68252;44.944;20.218;2023-10-09T05:47:45;10.55;;;4.63;;
78728;SDS011;68252;44.944;20.218;2023-10-09T05:50:27;21.67;;;9.27;;
78728;SDS011;68252;44.944;20.218;2023-10-09T05:52:54;23.38;;;12.20;;
78728;SDS011;68252;44.944;20.218;2023-10-09T05:55:24;14.43;;;8.25;;
78728;SDS011;68252;44.944;20.218;2023-10-09T05:57:56;8.60;;;4.63;;
78728;SDS011;68252;44.944;20.218;2023-10-09T06:00:28;10.82;;;5.07;;
78728;SDS011;68252;44.944;20.218;2023-10-09T06:03:13;9.65;;;4.40;;
78728;SDS011;68252;44.944;20.218;2023-10-09T06:05:48;13.00;;;4.15;;
78728;SDS011;68252;44.944;20.218;2023-10-09T06:08:21;13.25;;;4.72;;
78728;SDS011;68252;44.944;20.218;2023-10-09T06:10:52;10.43;;;4.10;;
78728;SDS011;68252;44.944;20.218;2023-10-09T06:13:36;13.25;;;4.13;;
78728;SDS011;68252;44.944;20.218;2023-10-09T06:16:03;14.60;;;3.15;;
78728;SDS011;68252;44.944;20.218;2023-10-09T06:18:55;9.45;;;3.85;;
78728;SDS011;68252;44.944;20.218;2023-10-09T06:21:33;9.32;;;3.92;;
78728;SDS011;68252;44.944;20.218;2023-10-09T06:24:18;13.98;;;3.15;;
78728;SDS011;68252;44.944;20.218;2023-10-09T06:26:45;9.65;;;3.15;;
78728;SDS011;68252;44.944;20.218;2023-10-09T06:29:24;6.72;;;3.08;;
78728;SDS011;68252;44.944;20.218;2023-10-09T06:32:09;11.43;;;4.70;;
78728;SDS011;68252;44.944;20.218;2023-10-09T06:34:44;10.38;;;3.63;;
78728;SDS011;68252;44.944;20.218;2023-10-09T06:37:11;9.15;;;4.72;;
78728;SDS011;68252;44.944;20.218;2023-10-09T06:39:50;8.40;;;3.83;;
78728;SDS011;68252;44.944;20.218;2023-10-09T06:42:36;14.70;;;5.97;;
78728;SDS011;68252;44.944;20.218;2023-10-09T06:45:06;11.52;;;4.85;;
78728;SDS011;68252;44.944;20.218;2023-10-09T06:47:42;8.27;;;3.35;;
78728;SDS011;68252;44.944;20.218;2023-10-09T06:50:21;7.70;;;3.60;;
78728;SDS011;68252;44.944;20.218;2023-10-09T06:52:48;13.93;;;4.75;;
78728;SDS011;68252;44.944;20.218;2023-10-09T06:55:37;13.52;;;3.83;;
78728;SDS011;68252;44.944;20.218;2023-10-09T06:58:23;7.07;;;3.13;;
78728;SDS011;68252;44.944;20.218;2023-10-09T07:00:52;7.53;;;2.58;;
78728;SDS011;68252;44.944;20.218;2023-10-09T07:03:37;8.15;;;3.50;;
78728;SDS011;68252;44.944;20.218;2023-10-09T07:08:55;7.57;;;2.80;;
78728;SDS011;68252;44.944;20.218;2023-10-09T07:14:05;6.55;;;2.85;;
78728;SDS011;68252;44.944;20.218;2023-10-09T07:16:50;12.52;;;3.35;;
78728;SDS011;68252;44.944;20.218;2023-10-09T07:19:22;7.88;;;2.75;;
78728;SDS011;68252;44.944;20.218;2023-10-09T07:22:10;7.68;;;2.90;;
78728;SDS011;68252;44.944;20.218;2023-10-09T07:25:03;8.80;;;4.45;;
78728;SDS011;68252;44.944;20.218;2023-10-09T07:27:40;12.73;;;3.55;;
78728;SDS011;68252;44.944;20.218;2023-10-09T07:30:11;6.82;;;3.90;;
78728;SDS011;68252;44.944;20.218;2023-10-09T07:32:59;8.77;;;3.60;;
78728;SDS011;68252;44.944;20.218;2023-10-09T07:40:36;9.93;;;5.07;;
78728;SDS011;68252;44.944;20.218;2023-10-09T07:43:24;15.45;;;4.32;;
78728;SDS011;68252;44.944;20.218;2023-10-09T07:46:09;9.88;;;3.47;;
78728;SDS011;68252;44.944;20.218;2023-10-09T07:48:58;20.70;;;4.63;;
78728;SDS011;68252;44.944;20.218;2023-10-09T07:51:26;8.20;;;3.50;;
78728;SDS011;68252;44.944;20.218;2023-10-09T07:53:58;12.60;;;3.78;;
78728;SDS011;68252;44.944;20.218;2023-10-09T07:56:37;12.07;;;3.55;;
78728;SDS011;68252;44.944;20.218;2023-10-09T07:59:06;12.10;;;3.67;;
78728;SDS011;68252;44.944;20.218;2023-10-09T08:01:42;14.45;;;4.38;;
78728;SDS011;68252;44.944;20.218;2023-10-09T08:04:24;12.80;;;4.47;;
78728;SDS011;68252;44.944;20.218;2023-10-09T08:07:09;15.60;;;4.13;;
78728;SDS011;68252;44.944;20.218;2023-10-09T08:09:44;21.40;;;8.75;;
78728;SDS011;68252;44.944;20.218;2023-10-09T08:14:40;11.70;;;4.00;;
78728;SDS011;68252;44.944;20.218;2023-10-09T08:17:08;10.93;;;4.22;;
78728;SDS011;68252;44.944;20.218;2023-10-09T08:19:54;18.08;;;5.88;;
78728;SDS011;68252;44.944;20.218;2023-10-09T08:22:24;9.07;;;4.40;;
78728;SDS011;68252;44.944;20.218;2023-10-09T08:24:51;12.95;;;5.05;;
78728;SDS011;68252;44.944;20.218;2023-10-09T08:29:55;11.23;;;4.82;;
78728;SDS011;68252;44.944;20.218;2023-10-09T08:32:40;9.13;;;3.28;;
78728;SDS011;68252;44.944;20.218;2023-10-09T08:35:10;6.72;;;2.60;;
78728;SDS011;68252;44.944;20.218;2023-10-09T08:37:59;13.82;;;3.83;;
78728;SDS011;68252;44.944;20.218;2023-10-09T08:40:39;9.43;;;4.65;;
78728;SDS011;68252;44.944;20.218;2023-10-09T08:43:09;11.18;;;3.20;;
78728;SDS011;68252;44.944;20.218;2023-10-09T08:45:39;7.68;;;3.42;;
78728;SDS011;68252;44.944;20.218;2023-10-09T08:48:09;5.15;;;2.47;;
78728;SDS011;68252;44.944;20.218;2023-10-09T08:50:40;9.48;;;4.80;;
78728;SDS011;68252;44.944;20.218;2023-10-09T08:53:07;9.85;;;3.72;;
78728;SDS011;68252;44.944;20.218;2023-10-09T08:55:36;12.02;;;4.93;;
78728;SDS011;68252;44.944;20.218;2023-10-09T08:58:03;15.97;;;5.73;;
78728;SDS011;68252;44.944;20.218;2023-10-09T09:00:43;5.97;;;2.78;;
78728;SDS011;68252;44.944;20.218;2023-10-09T09:03:11;9.05;;;2.50;;
78728;SDS011;68252;44.944;20.218;2023-10-09T09:05:37;5.95;;;3.05;;
78728;SDS011;68252;44.944;20.218;2023-10-09T09:08:03;9.05;;;3.00;;
78728;SDS011;68252;44.944;20.218;2023-10-09T09:10:29;9.18;;;2.40;;
78728;SDS011;68252;44.944;20.218;2023-10-09T09:13:03;5.20;;;2.20;;
78728;SDS011;68252;44.944;20.218;2023-10-09T09:15:31;7.05;;;3.10;;
78728;SDS011;68252;44.944;20.218;2023-10-09T09:18:05;16.40;;;3.03;;
78728;SDS011;68252;44.944;20.218;2023-10-09T09:20:31;10.45;;;3.55;;
78728;SDS011;68252;44.944;20.218;2023-10-09T09:23:10;11.23;;;5.28;;
78728;SDS011;68252;44.944;20.218;2023-10-09T09:28:26;18.75;;;7.50;;
78728;SDS011;68252;44.944;20.218;2023-10-09T09:31:07;10.13;;;5.57;;
78728;SDS011;68252;44.944;20.218;2023-10-09T09:36:17;11.57;;;6.00;;
78728;SDS011;68252;44.944;20.218;2023-10-09T09:38:43;20.20;;;6.63;;
78728;SDS011;68252;44.944;20.218;2023-10-09T09:41:16;8.93;;;4.45;;
78728;SDS011;68252;44.944;20.218;2023-10-09T09:43:58;14.25;;;7.00;;
78728;SDS011;68252;44.944;20.218;2023-10-09T09:46:32;8.55;;;4.75;;
78728;SDS011;68252;44.944;20.218;2023-10-09T09:49:02;7.07;;;3.50;;
78728;SDS011;68252;44.944;20.218;2023-10-09T09:51:32;6.10;;;2.78;;
78728;SDS011;68252;44.944;20.218;2023-10-09T09:53:59;9.95;;;3.38;;
78728;SDS011;68252;44.944;20.218;2023-10-09T09:56:25;7.72;;;2.92;;
78728;SDS011;68252;44.944;20.218;2023-10-09T09:58:52;5.97;;;2.42;;
78728;SDS011;68252;44.944;20.218;2023-10-09T10:01:23;10.15;;;2.42;;
78728;SDS011;68252;44.944;20.218;2023-10-09T10:06:26;5.45;;;2.40;;
78728;SDS011;68252;44.944;20.218;2023-10-09T10:08:54;9.38;;;1.95;;
78728;SDS011;68252;44.944;20.218;2023-10-09T10:11:40;10.27;;;3.17;;
78728;SDS011;68252;44.944;20.218;2023-10-09T10:14:08;12.25;;;3.22;;
78728;SDS011;68252;44.944;20.218;2023-10-09T10:22:24;6.75;;;2.00;;
78728;SDS011;68252;44.944;20.218;2023-10-09T10:27:23;7.95;;;2.30;;
78728;SDS011;68252;44.944;20.218;2023-10-09T10:32:53;8.13;;;2.83;;
78728;SDS011;68252;44.944;20.218;2023-10-09T10:35:20;7.43;;;2.78;;
78728;SDS011;68252;44.944;20.218;2023-10-09T10:37:57;4.65;;;2.00;;
78728;SDS011;68252;44.944;20.218;2023-10-09T10:40:32;5.85;;;2.40;;
78728;SDS011;68252;44.944;20.218;2023-10-09T10:43:20;5.47;;;2.10;;
78728;SDS011;68252;44.944;20.218;2023-10-09T10:46:05;18.33;;;2.22;;
78728;SDS011;68252;44.944;20.218;2023-10-09T10:48:39;6.30;;;2.28;;
78728;SDS011;68252;44.944;20.218;2023-10-09T10:51:05;7.82;;;2.22;;
78728;SDS011;68252;44.944;20.218;2023-10-09T10:53:36;7.10;;;2.05;;
78728;SDS011;68252;44.944;20.218;2023-10-09T10:56:14;7.00;;;2.37;;
78728;SDS011;68252;44.944;20.218;2023-10-09T10:58:41;7.97;;;2.30;;
78728;SDS011;68252;44.944;20.218;2023-10-09T11:01:19;9.68;;;2.78;;
78728;SDS011;68252;44.944;20.218;2023-10-09T11:03:49;9.73;;;3.45;;
78728;SDS011;68252;44.944;20.218;2023-10-09T11:06:24;10.25;;;4.15;;
78728;SDS011;68252;44.944;20.218;2023-10-09T11:09:00;10.38;;;2.90;;
78728;SDS011;68252;44.944;20.218;2023-10-09T11:11:34;11.57;;;3.38;;
78728;SDS011;68252;44.944;20.218;2023-10-09T11:14:12;8.30;;;3.13;;
78728;SDS011;68252;44.944;20.218;2023-10-09T11:16:40;9.10;;;2.13;;
78728;SDS011;68252;44.944;20.218;2023-10-09T11:19:21;15.65;;;2.42;;
78728;SDS011;68252;44.944;20.218;2023-10-09T11:21:54;12.32;;;5.63;;
78728;SDS011;68252;44.944;20.218;2023-10-09T11:24:25;8.18;;;2.78;;
78728;SDS011;68252;44.944;20.218;2023-10-09T11:26:52;6.05;;;3.40;;
78728;SDS011;68252;44.944;20.218;2023-10-09T11:29:24;11.38;;;3.33;;
78728;SDS011;68252;44.944;20.218;2023-10-09T11:32:08;10.80;;;5.13;;
78728;SDS011;68252;44.944;20.218;2023-10-09T11:34:42;34.25;;;16.98;;
78728;SDS011;68252;44.944;20.218;2023-10-09T11:37:17;31.17;;;14.10;;
78728;SDS011;68252;44.944;20.218;2023-10-09T11:40:06;11.32;;;5.03;;
78728;SDS011;68252;44.944;20.218;2023-10-09T11:42:48;39.10;;;21.00;;
78728;SDS011;68252;44.944;20.218;2023-10-09T11:45:21;28.98;;;10.68;;
78728;SDS011;68252;44.944;20.218;2023-10-09T11:47:55;16.33;;;5.07;;
78728;SDS011;68252;44.944;20.218;2023-10-09T11:53:08;17.83;;;7.43;;
78728;SDS011;68252;44.944;20.218;2023-10-09T11:55:43;10.60;;;3.10;;
78728;SDS011;68252;44.944;20.218;2023-10-09T11:58:13;4.93;;;1.80;;
78728;SDS011;68252;44.944;20.218;2023-10-09T12:00:39;7.15;;;2.00;;
78728;SDS011;68252;44.944;20.218;2023-10-09T12:03:12;13.95;;;2.65;;
78728;SDS011;68252;44.944;20.218;2023-10-09T12:05:39;11.63;;;4.22;;
78728;SDS011;68252;44.944;20.218;2023-10-09T12:08:12;10.02;;;3.35;;
78728;SDS011;68252;44.944;20.218;2023-10-09T12:10:41;16.60;;;3.80;;
78728;SDS011;68252;44.944;20.218;2023-10-09T12:13:07;16.83;;;2.78;;
78728;SDS011;68252;44.944;20.218;2023-10-09T12:15:33;9.95;;;3.38;;
78728;SDS011;68252;44.944;20.218;2023-10-09T12:18:03;9.00;;;3.13;;
78728;SDS011;68252;44.944;20.218;2023-10-09T12:20:32;17.45;;;5.13;;
78728;SDS011;68252;44.944;20.218;2023-10-09T12:22:59;22.52;;;3.35;;
78728;SDS011;68252;44.944;20.218;2023-10-09T12:25:26;13.63;;;2.22;;
78728;SDS011;68252;44.944;20.218;2023-10-09T12:27:56;33.83;;;14.88;;
78728;SDS011;68252;44.944;20.218;2023-10-09T12:30:25;26.63;;;9.68;;
78728;SDS011;68252;44.944;20.218;2023-10-09T12:32:55;24.00;;;7.40;;
78728;SDS011;68252;44.944;20.218;2023-10-09T12:35:23;15.38;;;5.80;;
78728;SDS011;68252;44.944;20.218;2023-10-09T12:37:50;12.98;;;4.18;;
78728;SDS011;68252;44.944;20.218;2023-10-09T12:40:16;30.48;;;12.07;;
78728;SDS011;68252;44.944;20.218;2023-10-09T12:42:50;8.98;;;4.20;;
78728;SDS011;68252;44.944;20.218;2023-10-09T12:45:16;15.15;;;5.72;;
78728;SDS011;68252;44.944;20.218;2023-10-09T12:47:43;16.92;;;4.47;;
78728;SDS011;68252;44.944;20.218;2023-10-09T12:50:09;11.25;;;3.50;;
78728;SDS011;68252;44.944;20.218;2023-10-09T12:55:04;9.90;;;3.40;;
78728;SDS011;68252;44.944;20.218;2023-10-09T12:57:32;10.55;;;3.20;;
78728;SDS011;68252;44.944;20.218;2023-10-09T12:59:58;16.70;;;3.45;;
78728;SDS011;68252;44.944;20.218;2023-10-09T13:02:24;8.13;;;2.80;;
78728;SDS011;68252;44.944;20.218;2023-10-09T13:04:57;14.32;;;4.80;;
78728;SDS011;68252;44.944;20.218;2023-10-09T13:07:25;10.38;;;3.90;;
78728;SDS011;68252;44.944;20.218;2023-10-09T13:09:51;13.65;;;3.83;;
78728;SDS011;68252;44.944;20.218;2023-10-09T13:12:38;30.25;;;10.10;;
78728;SDS011;68252;44.944;20.218;2023-10-09T13:15:09;16.88;;;5.03;;
78728;SDS011;68252;44.944;20.218;2023-10-09T13:17:36;18.23;;;9.13;;
78728;SDS011;68252;44.944;20.218;2023-10-09T13:20:02;19.35;;;6.38;;
78728;SDS011;68252;44.944;20.218;2023-10-09T13:22:37;24.23;;;7.90;;
78728;SDS011;68252;44.944;20.218;2023-10-09T13:25:04;16.30;;;3.25;;
78728;SDS011;68252;44.944;20.218;2023-10-09T13:27:31;13.77;;;3.15;;
78728;SDS011;68252;44.944;20.218;2023-10-09T13:30:02;12.93;;;2.90;;
78728;SDS011;68252;44.944;20.218;2023-10-09T13:32:33;9.88;;;4.45;;
78728;SDS011;68252;44.944;20.218;2023-10-09T13:35:01;16.50;;;3.75;;
78728;SDS011;68252;44.944;20.218;2023-10-09T13:37:28;7.18;;;3.33;;
78728;SDS011;68252;44.944;20.218;2023-10-09T13:39:57;12.63;;;4.80;;
78728;SDS011;68252;44.944;20.218;2023-10-09T13:42:24;14.05;;;3.75;;
78728;SDS011;68252;44.944;20.218;2023-10-09T13:44:51;9.15;;;3.25;;
78728;SDS011;68252;44.944;20.218;2023-10-09T13:47:20;19.05;;;3.25;;
78728;SDS011;68252;44.944;20.218;2023-10-09T13:49:50;19.08;;;4.13;;
78728;SDS011;68252;44.944;20.218;2023-10-09T13:52:18;5.70;;;2.50;;
78728;SDS011;68252;44.944;20.218;2023-10-09T13:54:47;11.88;;;3.90;;
78728;SDS011;68252;44.944;20.218;2023-10-09T13:57:14;9.48;;;2.70;;
78728;SDS011;68252;44.944;20.218;2023-10-09T13:59:41;14.10;;;2.88;;
78728;SDS011;68252;44.944;20.218;2023-10-09T14:02:09;34.30;;;13.03;;
78728;SDS011;68252;44.944;20.218;2023-10-09T14:04:41;23.02;;;5.85;;
78728;SDS011;68252;44.944;20.218;2023-10-09T14:07:08;14.05;;;4.40;;
78728;SDS011;68252;44.944;20.218;2023-10-09T14:09:34;12.15;;;3.30;;
78728;SDS011;68252;44.944;20.218;2023-10-09T14:19:36;14.15;;;4.68;;
78728;SDS011;68252;44.944;20.218;2023-10-09T14:22:02;16.00;;;3.25;;
78728;SDS011;68252;44.944;20.218;2023-10-09T14:24:30;19.90;;;3.22;;
78728;SDS011;68252;44.944;20.218;2023-10-09T14:26:59;18.48;;;3.35;;
78728;SDS011;68252;44.944;20.218;2023-10-09T14:29:28;21.00;;;2.95;;
78728;SDS011;68252;44.944;20.218;2023-10-09T14:31:55;33.90;;;5.28;;
78728;SDS011;68252;44.944;20.218;2023-10-09T14:34:27;15.60;;;2.58;;
78728;SDS011;68252;44.944;20.218;2023-10-09T14:37:01;13.65;;;2.72;;
78728;SDS011;68252;44.944;20.218;2023-10-09T14:39:31;19.35;;;3.10;;
78728;SDS011;68252;44.944;20.218;2023-10-09T14:42:01;11.52;;;2.50;;
78728;SDS011;68252;44.944;20.218;2023-10-09T14:44:34;10.80;;;2.88;;
78728;SDS011;68252;44.944;20.218;2023-10-09T14:47:03;12.50;;;3.88;;
78728;SDS011;68252;44.944;20.218;2023-10-09T14:49:30;16.05;;;2.90;;
78728;SDS011;68252;44.944;20.218;2023-10-09T14:52:02;13.07;;;3.63;;
78728;SDS011;68252;44.944;20.218;2023-10-09T14:54:28;10.77;;;3.17;;
78728;SDS011;68252;44.944;20.218;2023-10-09T14:56:54;14.20;;;2.85;;
78728;SDS011;68252;44.944;20.218;2023-10-09T14:59:21;7.15;;;2.42;;
78728;SDS011;68252;44.944;20.218;2023-10-09T15:01:48;23.00;;;2.90;;
78728;SDS011;68252;44.944;20.218;2023-10-09T15:04:15;15.68;;;3.60;;
78728;SDS011;68252;44.944;20.218;2023-10-09T15:06:42;12.18;;;2.33;;
78728;SDS011;68252;44.944;20.218;2023-10-09T15:09:08;13.73;;;2.50;;
78728;SDS011;68252;44.944;20.218;2023-10-09T15:11:41;16.02;;;2.55;;
78728;SDS011;68252;44.944;20.218;2023-10-09T15:14:07;19.77;;;2.55;;
78728;SDS011;68252;44.944;20.218;2023-10-09T15:16:33;9.25;;;2.38;;
78728;SDS011;68252;44.944;20.218;2023-10-09T15:19:00;14.10;;;2.20;;
78728;SDS011;68252;44.944;20.218;2023-10-09T15:21:27;15.32;;;2.60;;
78728;SDS011;68252;44.944;20.218;2023-10-09T15:23:54;6.40;;;1.85;;
78728;SDS011;68252;44.944;20.218;2023-10-09T15:26:21;19.25;;;3.05;;
78728;SDS011;68252;44.944;20.218;2023-10-09T15:28:49;12.43;;;2.50;;
78728;SDS011;68252;44.944;20.218;2023-10-09T15:31:16;15.20;;;2.70;;
78728;SDS011;68252;44.944;20.218;2023-10-09T15:33:42;10.30;;;2.70;;
78728;SDS011;68252;44.944;20.218;2023-10-09T15:36:09;9.13;;;1.98;;
78728;SDS011;68252;44.944;20.218;2023-10-09T15:38:36;11.50;;;2.60;;
78728;SDS011;68252;44.944;20.218;2023-10-09T15:41:02;11.93;;;2.75;;
78728;SDS011;68252;44.944;20.218;2023-10-09T15:43:31;16.38;;;2.50;;
78728;SDS011;68252;44.944;20.218;2023-10-09T15:45:59;9.95;;;2.22;;
78728;SDS011;68252;44.944;20.218;2023-10-09T15:48:25;8.63;;;2.80;;
78728;SDS011;68252;44.944;20.218;2023-10-09T15:50:51;18.05;;;3.10;;
78728;SDS011;68252;44.944;20.218;2023-10-09T15:53:17;15.57;;;3.05;;